createdAt,value
2022-12-08T00:00:53.676Z,100169.44
2022-12-08T00:03:28.066Z,100169.94
2022-12-08T00:06:30.743Z,100162.38
2022-12-08T00:09:21.960Z,100158.69
2022-12-08T00:11:58.263Z,100150.34
2022-12-08T00:14:34.040Z,100154.13
2022-12-08T00:17:09.666Z,100155.41
2022-12-08T00:19:44.349Z,100143.72
2022-12-08T00:22:19.356Z,100146.69
2022-12-08T00:24:52.814Z,100139.00
2022-12-08T00:27:26.637Z,100136.94
2022-12-08T00:30:00.081Z,100138.41
2022-12-08T00:32:34.008Z,100128.25
2022-12-08T00:35:08.109Z,100133.53
2022-12-08T00:37:43.162Z,100126.34
2022-12-08T00:40:16.715Z,100124.28
2022-12-08T00:42:50.473Z,100125.47
2022-12-08T00:45:24.198Z,100119.94
2022-12-08T00:47:57.914Z,100118.13
2022-12-08T00:50:31.431Z,100107.75
2022-12-08T00:53:06.704Z,100111.97
2022-12-08T00:55:40.264Z,100104.94
2022-12-08T00:58:14.023Z,100103.75
2022-12-08T01:00:47.615Z,100104.66
2022-12-08T01:03:21.441Z,100095.53
2022-12-08T01:05:54.990Z,100105.00
2022-12-08T01:08:30.051Z,100105.00
2022-12-08T01:11:04.602Z,100106.53
2022-12-08T01:13:38.687Z,100104.63
2022-12-08T01:16:20.277Z,100098.22
2022-12-08T01:18:54.845Z,100100.91
2022-12-08T01:21:28.553Z,100099.06
2022-12-08T01:24:03.763Z,100097.16
2022-12-08T01:26:37.275Z,100097.69
2022-12-08T01:29:11.685Z,100096.66
2022-12-08T01:31:45.544Z,100097.56
2022-12-08T01:34:19.234Z,100086.75
2022-12-08T01:36:53.878Z,100086.75
2022-12-08T01:39:29.854Z,100089.44
2022-12-08T01:42:03.327Z,100081.50
2022-12-08T01:45:02.473Z,100079.94
2022-12-08T01:47:41.013Z,100081.63
2022-12-08T01:50:19.233Z,100068.66
2022-12-08T01:52:55.649Z,100073.13
2022-12-08T01:55:37.932Z,100072.38
2022-12-08T01:58:17.914Z,100063.75
2022-12-08T02:00:52.974Z,100071.22
2022-12-08T02:03:30.540Z,100075.59
2022-12-08T02:06:05.165Z,100068.53
2022-12-08T02:08:41.466Z,100071.09
2022-12-08T02:11:16.940Z,100067.50
2022-12-08T02:13:53.558Z,100064.53
2022-12-08T02:16:38.175Z,100058.31
2022-12-08T02:19:55.260Z,100066.94
2022-12-08T02:22:38.226Z,100059.25
2022-12-08T02:25:16.962Z,100050.94
2022-12-08T02:27:59.434Z,100051.19
2022-12-08T02:30:45.808Z,100046.94
2022-12-08T02:33:49.380Z,100041.03
2022-12-08T02:36:29.608Z,100047.47
2022-12-08T02:39:12.399Z,100039.78
2022-12-08T02:41:52.999Z,100039.50
2022-12-08T02:44:32.506Z,100029.38
2022-12-08T02:47:09.583Z,100028.19
2022-12-08T02:49:43.520Z,100027.53
2022-12-08T02:52:42.821Z,100017.69
2022-12-08T02:55:23.713Z,100023.19
2022-12-08T02:58:16.724Z,100017.53
2022-12-08T03:01:08.147Z,100018.66
2022-12-08T03:03:48.031Z,100013.66
2022-12-08T03:06:30.086Z,100014.13
2022-12-08T03:09:11.663Z,100009.78
2022-12-08T03:11:51.591Z,100011.41
2022-12-08T03:14:26.220Z,100006.88
2022-12-08T03:17:01.108Z,100008.69
2022-12-08T03:19:38.751Z,100005.94
2022-12-08T03:22:14.471Z,100005.69
2022-12-08T03:24:49.902Z,100002.34
2022-12-08T03:27:27.462Z,100000.91
2022-12-08T03:30:02.738Z,99995.88
2022-12-08T03:32:44.312Z,99991.44
2022-12-08T03:35:21.673Z,99981.47
2022-12-08T03:38:04.489Z,99986.38
2022-12-08T03:40:40.734Z,99980.03
2022-12-08T03:43:14.364Z,99981.47
2022-12-08T03:45:47.867Z,99981.13
2022-12-08T03:48:21.694Z,99983.38
2022-12-08T03:50:55.210Z,99980.94
2022-12-08T03:53:28.896Z,99979.78
2022-12-08T03:56:04.896Z,99982.25
2022-12-08T03:58:38.548Z,99979.38
2022-12-08T04:01:12.318Z,99974.22
2022-12-08T04:03:46.200Z,99978.25
2022-12-08T04:06:21.251Z,99977.16
2022-12-08T04:08:54.969Z,99978.34
2022-12-08T04:11:29.807Z,99967.97
2022-12-08T04:14:03.534Z,99966.88
2022-12-08T04:16:37.150Z,99959.66
2022-12-08T04:19:11.048Z,99960.13
2022-12-08T04:21:44.623Z,99950.75
2022-12-08T04:24:18.508Z,99958.03
2022-12-08T04:26:53.386Z,99958.28
2022-12-08T04:29:27.123Z,99962.22
2022-12-08T04:32:00.820Z,99944.97
2022-12-08T04:34:34.499Z,99955.22
2022-12-08T04:37:08.040Z,99949.50
2022-12-08T04:39:41.739Z,99951.78
2022-12-08T04:42:16.623Z,99951.34
2022-12-08T04:44:50.289Z,99954.22
2022-12-08T04:47:23.757Z,99943.16
2022-12-08T04:49:57.457Z,99951.78
2022-12-08T04:52:31.076Z,99947.28
2022-12-08T04:55:05.525Z,99941.50
2022-12-08T04:57:40.384Z,99935.34
2022-12-08T05:00:15.074Z,99934.56
2022-12-08T05:02:48.830Z,99933.09
2022-12-08T05:05:22.625Z,99932.31
2022-12-08T05:07:56.199Z,99939.22
2022-12-08T05:10:30.309Z,99945.44
2022-12-08T05:13:05.485Z,99942.06
2022-12-08T05:15:39.289Z,99940.81
2022-12-08T05:18:12.747Z,99940.41
2022-12-08T05:20:46.482Z,99946.56
2022-12-08T05:23:19.920Z,99944.59
2022-12-08T05:25:53.752Z,99940.41
2022-12-08T05:28:44.447Z,99932.53
2022-12-08T05:31:18.681Z,99931.66
2022-12-08T05:33:53.315Z,99937.22
2022-12-08T05:36:27.127Z,99932.75
2022-12-08T05:39:00.598Z,99931.31
2022-12-08T05:41:34.488Z,99925.03
2022-12-08T05:44:09.622Z,99941.28
2022-12-08T05:46:43.270Z,99955.22
2022-12-08T05:49:16.722Z,99954.56
2022-12-08T05:51:50.397Z,99952.78
2022-12-08T05:54:23.999Z,99957.25
2022-12-08T05:56:57.707Z,99960.19
2022-12-08T05:59:32.514Z,99965.97
2022-12-08T06:02:06.381Z,99965.06
2022-12-08T06:04:40.060Z,99958.03
2022-12-08T06:07:16.179Z,99962.38
2022-12-08T06:09:49.893Z,99954.16
2022-12-08T06:12:24.200Z,99958.28
2022-12-08T06:14:59.099Z,99958.28
2022-12-08T06:17:33.108Z,99956.59
2022-12-08T06:20:08.138Z,99952.22
2022-12-08T06:22:42.052Z,99954.16
2022-12-08T06:25:15.561Z,99952.34
2022-12-08T06:27:49.254Z,99957.50
2022-12-08T06:30:24.090Z,99958.81
2022-12-08T06:32:57.716Z,99957.78
2022-12-08T06:35:31.261Z,99965.03
2022-12-08T06:38:04.993Z,99965.50
2022-12-08T06:40:38.496Z,99969.50
2022-12-08T06:43:12.206Z,99971.09
2022-12-08T06:45:47.085Z,99971.41
2022-12-08T06:48:21.048Z,99974.34
2022-12-08T06:50:54.531Z,99975.91
2022-12-08T06:53:28.226Z,99977.16
2022-12-08T06:56:01.725Z,99979.84
2022-12-08T06:58:35.937Z,99983.06
2022-12-08T07:01:13.535Z,99982.16
2022-12-08T07:03:47.763Z,99988.50
2022-12-08T07:06:24.850Z,99982.59
2022-12-08T07:08:58.558Z,99983.50
2022-12-08T07:11:32.036Z,99983.09
2022-12-08T07:14:05.968Z,99984.94
2022-12-08T07:16:41.074Z,99987.25
2022-12-08T07:19:15.044Z,99986.75
2022-12-08T07:21:48.984Z,99978.19
2022-12-08T07:24:22.955Z,99982.00
2022-12-08T07:26:56.482Z,99982.78
2022-12-08T07:29:30.222Z,99982.13
2022-12-08T07:32:05.403Z,99978.19
2022-12-08T07:34:39.139Z,99978.22
2022-12-08T07:37:12.672Z,99974.75
2022-12-08T07:39:46.419Z,99965.91
2022-12-08T07:42:19.916Z,99975.03
2022-12-08T07:44:53.646Z,99974.00
2022-12-08T07:47:28.637Z,99978.88
2022-12-08T07:50:02.691Z,99976.16
2022-12-08T07:52:36.681Z,99979.25
2022-12-08T07:55:11.126Z,99982.69
2022-12-08T07:57:44.819Z,99985.25
2022-12-08T08:00:19.455Z,99985.13
2022-12-08T08:02:54.332Z,99981.38
2022-12-08T08:05:28.217Z,99988.84
2022-12-08T08:08:01.815Z,99991.03
2022-12-08T08:10:35.488Z,99997.31
2022-12-08T08:13:09.761Z,99997.44
2022-12-08T08:15:43.571Z,99997.94
2022-12-08T08:18:18.552Z,100000.09
2022-12-08T08:20:52.288Z,100002.28
2022-12-08T08:23:25.910Z,99998.28
2022-12-08T08:26:01.304Z,99999.19
2022-12-08T08:28:35.137Z,99995.72
2022-12-08T08:31:09.085Z,100000.16
2022-12-08T08:33:45.720Z,100003.75
2022-12-08T08:36:22.116Z,100001.94
2022-12-08T08:38:56.057Z,100007.69
2022-12-08T08:41:30.092Z,100006.25
2022-12-08T08:44:03.899Z,100006.78
2022-12-08T08:46:37.826Z,100005.75
2022-12-08T08:49:12.834Z,100009.59
2022-12-08T08:51:46.763Z,100011.63
2022-12-08T08:54:20.635Z,100010.84
2022-12-08T08:56:55.853Z,100011.19
2022-12-08T08:59:29.966Z,100005.28
2022-12-08T09:02:03.765Z,100018.78
2022-12-08T09:04:38.855Z,100018.41
2022-12-08T09:07:13.067Z,100018.59
2022-12-08T09:09:46.608Z,100024.41
2022-12-08T09:12:20.574Z,100012.75
2022-12-08T09:14:54.069Z,100016.63
2022-12-08T09:17:27.775Z,100019.97
2022-12-08T09:20:03.152Z,100018.19
2022-12-08T09:22:37.174Z,100025.16
2022-12-08T09:25:11.108Z,100019.91
2022-12-08T09:27:44.891Z,100018.97
2022-12-08T09:30:18.460Z,100023.50
2022-12-08T09:32:52.441Z,100022.72
2022-12-08T09:35:27.401Z,100021.41
2022-12-08T09:38:01.371Z,100017.06
2022-12-08T09:40:43.714Z,100019.00
2022-12-08T09:43:33.877Z,100023.63
2022-12-08T09:46:11.075Z,100026.31
2022-12-08T09:48:55.413Z,100024.25
2022-12-08T09:51:34.136Z,100026.19
2022-12-08T09:54:13.189Z,100021.94
2022-12-08T09:56:46.997Z,100027.72
2022-12-08T09:59:25.060Z,100040.16
2022-12-08T10:01:58.736Z,100025.53
2022-12-08T10:04:35.762Z,100032.47
2022-12-08T10:07:18.470Z,100037.06
2022-12-08T10:10:01.787Z,100027.44
2022-12-08T10:12:44.116Z,100027.31
2022-12-08T10:15:40.732Z,100036.94
2022-12-08T10:18:17.924Z,100033.72
2022-12-08T10:20:52.889Z,100032.59
2022-12-08T10:23:32.814Z,100038.84
2022-12-08T10:26:08.718Z,100045.13
2022-12-08T10:28:45.084Z,100049.13
2022-12-08T10:31:21.589Z,100044.75
2022-12-08T10:33:58.938Z,100047.69
2022-12-08T10:36:50.136Z,100049.75
2022-12-08T10:39:37.136Z,100039.50
2022-12-08T10:42:20.685Z,100041.44
2022-12-08T10:45:00.182Z,100048.19
2022-12-08T10:47:38.652Z,100045.13
2022-12-08T10:50:28.953Z,100045.91
2022-12-08T10:53:12.479Z,100046.28
2022-12-08T10:55:50.189Z,100047.03
2022-12-08T10:58:26.223Z,100049.72
2022-12-08T11:01:03.170Z,100051.25
2022-12-08T11:03:41.826Z,100049.84
2022-12-08T11:06:19.004Z,100048.81
2022-12-08T11:08:54.978Z,100053.28
2022-12-08T11:11:45.830Z,100047.50
2022-12-08T11:14:23.611Z,100053.06
2022-12-08T11:17:05.681Z,100045.34
2022-12-08T11:19:40.910Z,100053.53
2022-12-08T11:22:26.105Z,100059.56
2022-12-08T11:25:01.740Z,100057.63
2022-12-08T11:27:38.624Z,100051.59
2022-12-08T11:30:16.898Z,100058.63
2022-12-08T11:32:54.717Z,100059.81
2022-12-08T11:35:30.916Z,100054.16
2022-12-08T11:38:21.070Z,100058.13
2022-12-08T11:40:59.266Z,100060.28
2022-12-08T11:43:46.982Z,100054.38
2022-12-08T11:46:25.080Z,100061.19
2022-12-08T11:49:06.367Z,100061.06
2022-12-08T11:51:44.960Z,100054.13
2022-12-08T11:54:24.303Z,100053.59
2022-12-08T11:56:59.709Z,100046.03
2022-12-08T11:59:39.480Z,100043.69
2022-12-08T12:02:17.054Z,100050.94
2022-12-08T12:04:56.881Z,100055.94
2022-12-08T12:07:58.626Z,100056.59
2022-12-08T12:10:55.352Z,100049.13
2022-12-08T12:13:42.657Z,100051.69
2022-12-08T12:16:38.973Z,100048.06
2022-12-08T12:19:15.933Z,100053.16
2022-12-08T12:21:53.538Z,100052.34
2022-12-08T12:24:35.951Z,100052.91
2022-12-08T12:27:24.353Z,100062.72
2022-12-08T12:30:00.885Z,100064.09
2022-12-08T12:32:46.617Z,100057.94
2022-12-08T12:35:28.215Z,100068.00
2022-12-08T12:38:25.620Z,100064.63
2022-12-08T12:41:02.527Z,100062.59
2022-12-08T12:43:37.567Z,100061.28
2022-12-08T12:46:40.931Z,100061.84
2022-12-08T12:49:53.963Z,100060.69
2022-12-08T12:52:53.164Z,100062.91
2022-12-08T12:55:30.147Z,100057.53
2022-12-08T12:58:19.868Z,100062.31
2022-12-08T13:01:33.861Z,100059.22
2022-12-08T13:04:10.435Z,100060.00
2022-12-08T13:06:48.370Z,100059.22
2022-12-08T13:09:28.417Z,100061.69
2022-12-08T13:12:10.399Z,100072.31
2022-12-08T13:14:50.106Z,100060.88
2022-12-08T13:17:28.332Z,100069.59
2022-12-08T13:20:06.109Z,100057.00
2022-12-08T13:23:12.863Z,100061.59
2022-12-08T13:25:49.536Z,100064.69
2022-12-08T13:28:27.059Z,100071.63
2022-12-08T13:31:01.770Z,100063.03
2022-12-08T13:33:40.541Z,100062.94
2022-12-08T13:36:19.873Z,100059.88
2022-12-08T13:38:58.766Z,100068.38
2022-12-08T13:41:38.116Z,100059.63
2022-12-08T13:45:11.351Z,100065.31
2022-12-08T13:47:37.229Z,100062.84
2022-12-08T13:59:10.336Z,100086.25
2022-12-08T14:01:46.685Z,100083.69
2022-12-08T14:04:42.540Z,100076.88
2022-12-08T14:07:17.459Z,100081.13
2022-12-08T14:09:52.710Z,100080.13
2022-12-08T14:12:28.941Z,100082.53
2022-12-08T14:15:05.980Z,100081.38
2022-12-08T14:17:40.854Z,100084.59
2022-12-08T14:20:23.429Z,100088.56
2022-12-08T14:22:58.884Z,100087.53
2022-12-08T14:25:32.650Z,100090.13
2022-12-08T14:28:07.758Z,100094.25
2022-12-08T14:30:41.824Z,100082.06
2022-12-08T14:33:17.361Z,100085.66
2022-12-08T14:35:52.435Z,100092.09
2022-12-08T14:38:27.120Z,100089.88
2022-12-08T14:41:04.000Z,100088.63
2022-12-08T14:43:40.846Z,100091.22
2022-12-08T14:46:22.039Z,100086.84
2022-12-08T14:48:57.034Z,100095.94
2022-12-08T14:51:34.076Z,100103.25
2022-12-08T14:54:10.605Z,100102.88
2022-12-08T14:56:51.808Z,100099.94
2022-12-08T14:59:30.284Z,100103.75
2022-12-08T15:02:24.491Z,100099.28
2022-12-08T15:05:01.559Z,100104.28
2022-12-08T15:07:45.702Z,100107.47
2022-12-08T15:10:26.448Z,100100.31
2022-12-08T15:13:04.700Z,100108.78
2022-12-08T15:15:49.434Z,100114.03
2022-12-08T15:18:31.669Z,100110.69
2022-12-08T15:21:08.973Z,100112.75
2022-12-08T15:23:45.330Z,100113.28
2022-12-08T15:26:22.923Z,100125.06
2022-12-08T15:28:56.977Z,100119.81
2022-12-08T15:31:31.912Z,100124.69
2022-12-08T15:34:05.789Z,100128.03
2022-12-08T15:36:40.026Z,100139.97
2022-12-08T15:39:33.122Z,100139.31
2022-12-08T15:42:12.580Z,100142.00
2022-12-08T15:44:46.466Z,100148.28
2022-12-08T15:47:23.328Z,100148.16
2022-12-08T15:49:57.104Z,100148.03
2022-12-08T15:52:30.600Z,100148.16
2022-12-08T15:55:04.587Z,100147.91
2022-12-08T15:58:51.353Z,100145.09
2022-12-08T16:07:12.913Z,100148.28
2022-12-08T16:09:21.887Z,100143.81
2022-12-08T16:12:13.779Z,100143.16
2022-12-08T16:15:47.178Z,100151.63
2022-12-08T16:17:42.092Z,100146.75
2022-12-08T16:20:20.104Z,100151.50
2022-12-08T16:23:13.032Z,100152.38
2022-12-08T16:26:20.447Z,100154.06
2022-12-08T16:28:53.814Z,100152.91
2022-12-08T16:31:28.289Z,100157.78
2022-12-08T16:34:02.108Z,100153.41
2022-12-08T16:36:36.957Z,100157.78
2022-12-08T16:39:13.553Z,100163.81
2022-12-08T16:42:04.888Z,100161.75
2022-12-08T16:44:41.856Z,100168.81
2022-12-08T16:47:15.519Z,100167.00
2022-12-08T16:49:49.231Z,100162.66
2022-12-08T16:52:24.222Z,100173.19
2022-12-08T16:54:58.070Z,100168.59
2022-12-08T16:57:31.547Z,100175.25
2022-12-08T17:00:09.226Z,100175.13
2022-12-08T17:02:43.117Z,100180.28
2022-12-08T17:05:19.989Z,100186.53
2022-12-08T17:07:55.413Z,100178.34
2022-12-08T17:10:31.590Z,100180.41
2022-12-08T17:13:05.157Z,100179.06
2022-12-08T17:15:41.172Z,100184.84
2022-12-08T17:18:14.753Z,100186.78
2022-12-08T17:20:48.574Z,100189.34
2022-12-08T17:23:23.618Z,100189.63
2022-12-08T17:26:00.945Z,100197.34
2022-12-08T17:28:58.848Z,100183.19
2022-12-08T17:31:30.313Z,100188.56
2022-12-08T17:34:09.499Z,100187.53
2022-12-08T17:36:42.958Z,100185.63
2022-12-08T17:39:19.231Z,100183.97
2022-12-08T17:41:53.140Z,100189.59
2022-12-08T17:44:28.046Z,100191.91
2022-12-08T17:47:02.517Z,100194.75
2022-12-08T17:49:36.037Z,100182.28
2022-12-08T17:52:11.057Z,100181.28
2022-12-08T17:54:46.010Z,100174.34
2022-12-08T17:57:19.828Z,100175.75
2022-12-08T17:59:53.452Z,100180.72
2022-12-08T18:02:27.140Z,100186.09
2022-12-08T18:05:01.053Z,100182.25
2022-12-08T18:07:35.572Z,100184.44
2022-12-08T18:10:10.594Z,100179.44
2022-12-08T18:12:44.756Z,100178.53
2022-12-08T18:15:20.066Z,100179.56
2022-12-08T18:17:53.782Z,100177.38
2022-12-08T18:20:27.870Z,100180.97
2022-12-08T18:23:01.640Z,100181.22
2022-12-08T18:25:36.503Z,100182.38
2022-12-08T18:28:10.994Z,100180.88
2022-12-08T18:30:44.721Z,100181.50
2022-12-08T18:33:18.595Z,100177.41
2022-12-08T18:35:52.245Z,100177.03
2022-12-08T18:38:25.951Z,100183.19
2022-12-08T18:41:07.201Z,100188.84
2022-12-08T18:43:41.553Z,100182.94
2022-12-08T18:46:15.746Z,100180.88
2022-12-08T18:48:51.634Z,100189.59
2022-12-08T18:51:25.645Z,100183.06
2022-12-08T18:53:59.613Z,100178.69
2022-12-08T18:56:36.851Z,100183.06
2022-12-08T18:59:12.780Z,100188.56
2022-12-08T19:02:12.044Z,100186.28
2022-12-08T19:04:46.250Z,100192.44
2022-12-08T19:07:19.924Z,100182.53
2022-12-08T19:09:54.115Z,100187.69
2022-12-08T19:12:28.914Z,100187.16
2022-12-08T19:15:02.687Z,100191.00
2022-12-08T19:17:36.545Z,100190.88
2022-12-08T19:20:11.201Z,100200.00
2022-12-08T19:22:44.837Z,100210.59
2022-12-08T19:25:18.624Z,100207.44
2022-12-08T19:27:53.545Z,100205.38
2022-12-08T19:30:27.493Z,100213.22
2022-12-08T19:33:01.377Z,100213.22
2022-12-08T19:35:35.251Z,100210.38
2022-12-08T19:38:08.827Z,100212.56
2022-12-08T19:41:00.457Z,100216.13
2022-12-08T19:43:52.637Z,100216.63
2022-12-08T19:46:26.430Z,100212.63
2022-12-08T19:49:00.200Z,100207.13
2022-12-08T19:51:34.008Z,100211.81
2022-12-08T19:54:08.687Z,100206.56
2022-12-08T19:56:42.545Z,100218.09
2022-12-08T19:59:18.092Z,100219.38
2022-12-08T20:01:52.710Z,100215.63
2022-12-08T20:04:28.702Z,100218.81
2022-12-08T20:07:02.563Z,100223.94
2022-12-08T20:09:36.201Z,100228.94
2022-12-08T20:12:09.942Z,100220.84
2022-12-08T20:14:46.191Z,100225.34
2022-12-08T20:17:20.309Z,100218.53
2022-12-08T20:19:53.844Z,100223.34
2022-12-08T20:22:27.502Z,100227.56
2022-12-08T20:25:01.405Z,100227.13
2022-12-08T20:27:35.445Z,100229.44
2022-12-08T20:30:16.748Z,100223.00
2022-12-08T20:32:50.813Z,100225.94
2022-12-08T20:35:24.555Z,100227.34
2022-12-08T20:37:58.252Z,100230.34
2022-12-08T20:40:31.964Z,100230.34
2022-12-08T20:43:05.652Z,100235.34
2022-12-08T20:45:40.696Z,100233.56
2022-12-08T20:48:14.635Z,100241.25
2022-12-08T20:50:51.714Z,100245.47
2022-12-08T20:53:25.659Z,100236.25
2022-12-08T20:55:59.276Z,100234.72
2022-12-08T20:58:33.264Z,100236.81
2022-12-08T21:01:11.593Z,100231.97
2022-12-08T21:03:46.471Z,100238.13
2022-12-08T21:06:22.249Z,100240.19
2022-12-08T21:08:56.255Z,100241.34
2022-12-08T21:11:30.114Z,100242.38
2022-12-08T21:14:03.958Z,100238.16
2022-12-08T21:16:40.128Z,100244.44
2022-12-08T21:19:14.315Z,100239.31
2022-12-08T21:21:48.001Z,100236.34
2022-12-08T21:24:21.703Z,100241.22
2022-12-08T21:26:55.402Z,100241.22
2022-12-08T21:29:29.263Z,100236.72
2022-12-08T21:32:05.122Z,100242.47
2022-12-08T21:34:39.128Z,100245.28
2022-12-08T21:37:12.760Z,100249.69
2022-12-08T21:39:46.529Z,100246.22
2022-12-08T21:42:37.783Z,100245.88
2022-12-08T21:45:12.866Z,100250.72
2022-12-08T21:47:49.462Z,100258.72
2022-12-08T21:50:23.451Z,100261.97
2022-12-08T21:52:57.456Z,100251.84
2022-12-08T21:55:31.490Z,100254.53
2022-12-08T21:58:05.632Z,100258.28
2022-12-08T22:00:39.632Z,100267.03
2022-12-08T22:03:16.534Z,100262.41
2022-12-08T22:05:50.849Z,100262.56
2022-12-08T22:08:24.564Z,100259.56
2022-12-08T22:10:58.641Z,100257.28
2022-12-08T22:13:34.398Z,100262.56
2022-12-08T22:16:11.432Z,100263.03
2022-12-08T22:18:46.753Z,100264.69
2022-12-08T22:21:20.410Z,100267.25
2022-12-08T22:23:53.895Z,100264.06
2022-12-08T22:26:27.543Z,100266.91
2022-12-08T22:29:01.682Z,100261.78
2022-12-08T22:31:35.526Z,100265.38
2022-12-08T22:34:10.655Z,100249.41
2022-12-08T22:36:44.555Z,100253.63
2022-12-08T22:39:18.429Z,100257.84
2022-12-08T22:41:52.298Z,100267.31
2022-12-08T22:44:25.823Z,100263.59
2022-12-08T22:46:59.647Z,100260.25
2022-12-08T22:49:35.756Z,100265.66
2022-12-08T22:52:09.809Z,100260.88
2022-12-08T22:54:43.335Z,100261.03
2022-12-08T22:57:18.057Z,100276.25
2022-12-08T22:59:51.715Z,100272.66
2022-12-08T23:02:25.473Z,100271.72
2022-12-08T23:05:00.487Z,100265.66
2022-12-08T23:07:34.436Z,100272.75
2022-12-08T23:10:11.169Z,100269.09
2022-12-08T23:12:45.455Z,100270.66
2022-12-08T23:15:19.109Z,100269.75
2022-12-08T23:17:53.185Z,100269.94
2022-12-08T23:20:28.262Z,100265.19
2022-12-08T23:23:02.163Z,100269.13
2022-12-08T23:25:35.765Z,100269.56
2022-12-08T23:28:10.265Z,100269.28
2022-12-08T23:30:44.243Z,100267.81
2022-12-08T23:33:18.280Z,100268.44
2022-12-08T23:35:58.668Z,100270.25
2022-12-08T23:38:32.675Z,100256.81
2022-12-08T23:41:07.851Z,100262.44
2022-12-08T23:43:45.824Z,100252.31
2022-12-08T23:46:22.013Z,100263.19
2022-12-08T23:48:56.070Z,100262.91
2022-12-08T23:51:31.185Z,100259.16
2022-12-08T23:54:07.257Z,100256.59
2022-12-08T23:56:40.839Z,100264.69
2022-12-08T23:59:14.571Z,100265.31
